Rejestracja

Wszystkie dane podawane są w czasie UTC za wyjątkiem miejsc gdzie jest jednoznacznie podane, że jest inaczej. Dane podawane w serwisie mają charakter informacyjny!!!
Informacje w sprawie dostępu do serwisu pod numerem tel. +48 261-828-138

Aktualna Pogoda
 
Pogoda w Polsce
19°C Szczecin 14°C Suwałki 15°C Warszawa 19°C Poznan
16°C Opole 13°C Kraków 13°C Rzeszów
Więcej miast w Polsce

Pogoda w Europie
19°C Berlin 18°C Paryz 15°C Bruksela 10°C Oslo
20°C Praga 16°C Zagrzeb
Więcej miast w Europie

Metary wojskowe test
METAR EPBC 281700Z 26006KT CAVOK 16/05 Q1014=
METAR EPCE 281730Z 18004KT 150V210 9999 OVC071 16/05 Q1010 RMK 160 047 8/8=
METAR EPDA 281730Z 19009KT 9999 BKN075 BKN121 17/07 Q1009 RMK 167 052 7/5=
METAR EPDE 281730Z 27008KT CAVOK 14/05 Q1015 RMK 136 057 3/3=
METAR EPIR 281730Z 21008KT CAVOK 17/03 Q1013 RMK 174 038 3/2=
METAR EPKS 281730Z 21008KT 9999 SCT070 BKN200 18/04 Q1013 RMK 177 039 5/3=
METAR EPLK 281730Z 22006KT CAVOK 14/04 Q1015 RMK 141 052 6/2=
METAR EPLY 281730Z 22012KT 9999 SCT060 BKN200 16/04 Q1014 RMK 158 048 5/3=
METAR EPMB 281730Z 19006KT CAVOK 16/06 Q1012 RMK 160 052 3/3=
METAR EPMI 281730Z 19006KT 9999 BKN083 17/03 Q1011 RMK 173 087 6/6=
METAR EPMM 281730Z 26004KT 9999 SCT050 13/05 Q1014 RMK 131 057 3/3=
METAR EPOK 281730Z 14007KT 9999 SCT125 BKN250 14/09 Q1010 RMK 136 076 5/4=
METAR EPPR 281730Z 18004KT CAVOK 17/04 Q1011 RMK 174 042 4/4=
METAR EPPW 281730Z 21006KT CAVOK 17/03 Q1013 RMK 170 038 1/1=
METAR EPSN 281730Z 17010KT 9999 FEW060 BKN100 17/05 Q1009 RMK 172 043 7/2=
METAR EPTM 281730Z 24006KT CAVOK 15/03 Q1015 RMK 145 047 4/4=


 
Informacje ogólne
Pogoda
Warszawa
Temperatura: 15.2°C
Wiatr: 2.0 m/s
Ciśnienie: 1014.7 hPa
Zjawiska: Brak
Temp. max: 15.4 °C
Temp. min: 7.2 °C


Dane astronomiczne
Warszawa:
Dzien: 16:17 h
Noc: 07:43 h


Using HW VSP powered by HW group.

Prawa autorskie©2007 SSH SZ RP. Wszelkie prawa zastrzeżone.